sensor_id;sensor_type;location;lat;lon;timestamp;pressure;altitude;pressure_sealevel;temperature;humidity
68871;BME280;55906;52.278;6.808;2024-01-15T00:00:10;100049.88;;;2.62;100.00
68871;BME280;55906;52.278;6.808;2024-01-15T00:02:38;100043.16;;;2.67;100.00
68871;BME280;55906;52.278;6.808;2024-01-15T00:05:05;100030.06;;;2.64;100.00
68871;BME280;55906;52.278;6.808;2024-01-15T00:07:31;100029.09;;;2.62;100.00
68871;BME280;55906;52.278;6.808;2024-01-15T00:09:58;100026.34;;;2.58;100.00
68871;BME280;55906;52.278;6.808;2024-01-15T00:12:25;100025.38;;;2.56;100.00
68871;BME280;55906;52.278;6.808;2024-01-15T00:14:51;100021.75;;;2.53;100.00
68871;BME280;55906;52.278;6.808;2024-01-15T00:17:18;100011.88;;;2.44;100.00
68871;BME280;55906;52.278;6.808;2024-01-15T00:19:46;100020.88;;;2.52;100.00
68871;BME280;55906;52.278;6.808;2024-01-15T00:22:12;100021.63;;;2.50;100.00
68871;BME280;55906;52.278;6.808;2024-01-15T00:24:39;100023.41;;;2.51;100.00
68871;BME280;55906;52.278;6.808;2024-01-15T00:27:06;100019.72;;;2.46;100.00
68871;BME280;55906;52.278;6.808;2024-01-15T00:29:32;100018.69;;;2.42;100.00
68871;BME280;55906;52.278;6.808;2024-01-15T00:31:59;100019.44;;;2.40;100.00
68871;BME280;55906;52.278;6.808;2024-01-15T00:34:26;100016.94;;;2.41;100.00
68871;BME280;55906;52.278;6.808;2024-01-15T00:36:54;100014.13;;;2.37;100.00
68871;BME280;55906;52.278;6.808;2024-01-15T00:39:21;100010.50;;;2.33;100.00
68871;BME280;55906;52.278;6.808;2024-01-15T00:41:47;100014.88;;;2.34;100.00
68871;BME280;55906;52.278;6.808;2024-01-15T00:44:14;100009.81;;;2.37;100.00
68871;BME280;55906;52.278;6.808;2024-01-15T00:46:44;100001.09;;;2.35;100.00
68871;BME280;55906;52.278;6.808;2024-01-15T00:49:11;100002.31;;;2.24;100.00
68871;BME280;55906;52.278;6.808;2024-01-15T00:51:38;99994.53;;;2.24;100.00
68871;BME280;55906;52.278;6.808;2024-01-15T00:54:06;99991.06;;;2.23;100.00
68871;BME280;55906;52.278;6.808;2024-01-15T00:56:33;99985.84;;;2.23;100.00
68871;BME280;55906;52.278;6.808;2024-01-15T00:59:00;99997.13;;;2.24;100.00
68871;BME280;55906;52.278;6.808;2024-01-15T01:01:27;99992.81;;;2.24;100.00
68871;BME280;55906;52.278;6.808;2024-01-15T01:03:53;99989.22;;;2.21;100.00
68871;BME280;55906;52.278;6.808;2024-01-15T01:06:20;99987.50;;;2.21;100.00
68871;BME280;55906;52.278;6.808;2024-01-15T01:08:47;99984.09;;;2.22;100.00
68871;BME280;55906;52.278;6.808;2024-01-15T01:11:15;99979.78;;;2.23;100.00
68871;BME280;55906;52.278;6.808;2024-01-15T01:13:42;99978.00;;;2.22;100.00
68871;BME280;55906;52.278;6.808;2024-01-15T01:16:08;99973.50;;;2.18;100.00
68871;BME280;55906;52.278;6.808;2024-01-15T01:18:35;99977.88;;;2.19;100.00
68871;BME280;55906;52.278;6.808;2024-01-15T01:21:02;99963.81;;;2.14;100.00
68871;BME280;55906;52.278;6.808;2024-01-15T01:23:28;99958.81;;;2.18;100.00
68871;BME280;55906;52.278;6.808;2024-01-15T01:25:55;99961.63;;;2.23;100.00
68871;BME280;55906;52.278;6.808;2024-01-15T01:28:23;99959.03;;;2.23;100.00
68871;BME280;55906;52.278;6.808;2024-01-15T01:30:49;99964.09;;;2.20;100.00
68871;BME280;55906;52.278;6.808;2024-01-15T01:33:16;99955.56;;;2.22;100.00
68871;BME280;55906;52.278;6.808;2024-01-15T01:35:43;99953.72;;;2.20;100.00
68871;BME280;55906;52.278;6.808;2024-01-15T01:38:10;99956.22;;;2.18;100.00
68871;BME280;55906;52.278;6.808;2024-01-15T01:40:37;99952.88;;;2.21;99.53
68871;BME280;55906;52.278;6.808;2024-01-15T01:43:04;99952.06;;;2.22;99.69
68871;BME280;55906;52.278;6.808;2024-01-15T01:45:32;99959.09;;;2.24;98.87
68871;BME280;55906;52.278;6.808;2024-01-15T01:47:59;99959.91;;;2.23;99.19
68871;BME280;55906;52.278;6.808;2024-01-15T01:50:27;99959.78;;;2.20;99.13
68871;BME280;55906;52.278;6.808;2024-01-15T01:52:54;99959.72;;;2.19;98.91
68871;BME280;55906;52.278;6.808;2024-01-15T01:55:22;99966.59;;;2.18;99.28
68871;BME280;55906;52.278;6.808;2024-01-15T01:57:51;99965.44;;;2.12;98.22
68871;BME280;55906;52.278;6.808;2024-01-15T02:00:18;99957.81;;;2.15;98.22
68871;BME280;55906;52.278;6.808;2024-01-15T02:02:46;99967.50;;;2.19;97.68
68871;BME280;55906;52.278;6.808;2024-01-15T02:05:13;99967.50;;;2.19;98.47
68871;BME280;55906;52.278;6.808;2024-01-15T02:07:41;99969.00;;;2.14;97.91
68871;BME280;55906;52.278;6.808;2024-01-15T02:10:08;99969.97;;;2.16;97.99
68871;BME280;55906;52.278;6.808;2024-01-15T02:12:35;99973.31;;;2.13;97.75
68871;BME280;55906;52.278;6.808;2024-01-15T02:15:02;99967.03;;;2.08;98.14
68871;BME280;55906;52.278;6.808;2024-01-15T02:17:28;99970.91;;;2.18;98.08
68871;BME280;55906;52.278;6.808;2024-01-15T02:19:56;99968.31;;;2.18;97.08
68871;BME280;55906;52.278;6.808;2024-01-15T02:22:23;99960.75;;;2.22;97.28
68871;BME280;55906;52.278;6.808;2024-01-15T02:24:51;99951.13;;;2.20;97.38
68871;BME280;55906;52.278;6.808;2024-01-15T02:27:18;99955.47;;;2.21;97.69
68871;BME280;55906;52.278;6.808;2024-01-15T02:29:45;99954.41;;;2.16;97.23
68871;BME280;55906;52.278;6.808;2024-01-15T02:32:12;99943.69;;;2.08;97.71
68871;BME280;55906;52.278;6.808;2024-01-15T02:34:39;99957.00;;;2.16;97.56
68871;BME280;55906;52.278;6.808;2024-01-15T02:37:06;99948.13;;;2.11;97.03
68871;BME280;55906;52.278;6.808;2024-01-15T02:39:32;99949.81;;;2.10;97.75
68871;BME280;55906;52.278;6.808;2024-01-15T02:42:00;99954.06;;;2.08;97.00
68871;BME280;55906;52.278;6.808;2024-01-15T02:44:27;99957.81;;;2.15;97.29
68871;BME280;55906;52.278;6.808;2024-01-15T02:46:53;99963.00;;;2.15;97.18
68871;BME280;55906;52.278;6.808;2024-01-15T02:49:20;99957.88;;;2.16;97.08
68871;BME280;55906;52.278;6.808;2024-01-15T02:51:47;99951.78;;;2.16;97.25
68871;BME280;55906;52.278;6.808;2024-01-15T02:54:13;99960.66;;;2.21;97.83
68871;BME280;55906;52.278;6.808;2024-01-15T02:56:40;99951.88;;;2.17;97.22
68871;BME280;55906;52.278;6.808;2024-01-15T02:59:08;99953.84;;;2.23;97.49
68871;BME280;55906;52.278;6.808;2024-01-15T03:01:34;99953.16;;;2.27;96.75
68871;BME280;55906;52.278;6.808;2024-01-15T03:04:01;99945.25;;;2.24;97.31
68871;BME280;55906;52.278;6.808;2024-01-15T03:06:28;99946.25;;;2.28;96.73
68871;BME280;55906;52.278;6.808;2024-01-15T03:08:54;99945.09;;;2.21;97.02
68871;BME280;55906;52.278;6.808;2024-01-15T03:11:21;99951.19;;;2.21;96.79
68871;BME280;55906;52.278;6.808;2024-01-15T03:13:47;99934.53;;;2.16;97.29
68871;BME280;55906;52.278;6.808;2024-01-15T03:16:15;99941.69;;;2.22;96.47
68871;BME280;55906;52.278;6.808;2024-01-15T03:18:42;99946.00;;;2.21;96.53
68871;BME280;55906;52.278;6.808;2024-01-15T03:21:09;99945.09;;;2.21;96.30
68871;BME280;55906;52.278;6.808;2024-01-15T03:23:35;99957.94;;;2.18;96.83
68871;BME280;55906;52.278;6.808;2024-01-15T03:26:02;99957.25;;;2.22;96.50
68871;BME280;55906;52.278;6.808;2024-01-15T03:28:29;99954.72;;;2.23;96.97
68871;BME280;55906;52.278;6.808;2024-01-15T03:30:56;99965.38;;;2.30;96.99
68871;BME280;55906;52.278;6.808;2024-01-15T03:33:24;99973.44;;;2.36;97.25
68871;BME280;55906;52.278;6.808;2024-01-15T03:35:50;99968.31;;;2.37;97.17
68871;BME280;55906;52.278;6.808;2024-01-15T03:38:17;99973.50;;;2.37;96.72
68871;BME280;55906;52.278;6.808;2024-01-15T03:40:44;99992.00;;;2.45;97.04
68871;BME280;55906;52.278;6.808;2024-01-15T03:43:10;99986.88;;;2.46;97.39
68871;BME280;55906;52.278;6.808;2024-01-15T03:45:37;99971.22;;;2.45;97.22
68871;BME280;55906;52.278;6.808;2024-01-15T03:48:04;99979.78;;;2.42;97.67
68871;BME280;55906;52.278;6.808;2024-01-15T03:50:32;99977.69;;;2.54;96.40
68871;BME280;55906;52.278;6.808;2024-01-15T03:52:59;99969.91;;;2.54;96.88
68871;BME280;55906;52.278;6.808;2024-01-15T03:55:25;99968.41;;;2.60;96.68
68871;BME280;55906;52.278;6.808;2024-01-15T03:57:52;99957.75;;;2.53;96.69
68871;BME280;55906;52.278;6.808;2024-01-15T04:00:19;99956.81;;;2.51;96.78
68871;BME280;55906;52.278;6.808;2024-01-15T04:02:45;99946.56;;;2.54;96.32
68871;BME280;55906;52.278;6.808;2024-01-15T04:05:12;99948.19;;;2.52;96.34
68871;BME280;55906;52.278;6.808;2024-01-15T04:07:40;99945.59;;;2.52;96.60
68871;BME280;55906;52.278;6.808;2024-01-15T04:10:07;99939.25;;;2.46;97.26
68871;BME280;55906;52.278;6.808;2024-01-15T04:12:34;99932.38;;;2.46;97.09
68871;BME280;55906;52.278;6.808;2024-01-15T04:15:01;99932.38;;;2.46;97.33
68871;BME280;55906;52.278;6.808;2024-01-15T04:17:27;99934.97;;;2.46;96.67
68871;BME280;55906;52.278;6.808;2024-01-15T04:19:54;99932.09;;;2.40;97.33
68871;BME280;55906;52.278;6.808;2024-01-15T04:22:21;99931.28;;;2.41;96.97
68871;BME280;55906;52.278;6.808;2024-01-15T04:24:49;99929.50;;;2.40;97.32
68871;BME280;55906;52.278;6.808;2024-01-15T04:27:15;99938.13;;;2.39;97.52
68871;BME280;55906;52.278;6.808;2024-01-15T04:29:42;99936.34;;;2.38;97.70
68871;BME280;55906;52.278;6.808;2024-01-15T04:32:09;99936.41;;;2.40;97.67
68871;BME280;55906;52.278;6.808;2024-01-15T04:34:36;99942.63;;;2.43;97.50
68871;BME280;55906;52.278;6.808;2024-01-15T04:37:03;99937.44;;;2.43;97.46
68871;BME280;55906;52.278;6.808;2024-01-15T04:39:29;99938.94;;;2.38;97.95
68871;BME280;55906;52.278;6.808;2024-01-15T04:41:57;99939.25;;;2.46;98.01
68871;BME280;55906;52.278;6.808;2024-01-15T04:44:24;99924.31;;;2.40;98.67
68871;BME280;55906;52.278;6.808;2024-01-15T04:46:51;99918.19;;;2.38;99.20
68871;BME280;55906;52.278;6.808;2024-01-15T04:49:17;99907.66;;;2.35;98.64
68871;BME280;55906;52.278;6.808;2024-01-15T04:51:44;99919.88;;;2.38;98.92
68871;BME280;55906;52.278;6.808;2024-01-15T04:54:10;99921.34;;;2.31;99.84
68871;BME280;55906;52.278;6.808;2024-01-15T04:56:37;99921.47;;;2.34;100.00
68871;BME280;55906;52.278;6.808;2024-01-15T04:59:05;99915.38;;;2.34;99.71
68871;BME280;55906;52.278;6.808;2024-01-15T05:01:32;99925.84;;;2.35;99.70
68871;BME280;55906;52.278;6.808;2024-01-15T05:03:59;99922.34;;;2.35;99.28
68871;BME280;55906;52.278;6.808;2024-01-15T05:06:26;99920.09;;;2.42;99.79
68871;BME280;55906;52.278;6.808;2024-01-15T05:08:52;99904.50;;;2.42;98.83
68871;BME280;55906;52.278;6.808;2024-01-15T05:11:19;99913.25;;;2.44;99.30
68871;BME280;55906;52.278;6.808;2024-01-15T05:13:46;99913.38;;;2.47;98.84
68871;BME280;55906;52.278;6.808;2024-01-15T05:16:14;99910.59;;;2.43;99.54
68871;BME280;55906;52.278;6.808;2024-01-15T05:18:40;99899.44;;;2.45;99.85
68871;BME280;55906;52.278;6.808;2024-01-15T05:21:08;99905.53;;;2.46;99.65
68871;BME280;55906;52.278;6.808;2024-01-15T05:23:35;99901.84;;;2.41;100.00
68871;BME280;55906;52.278;6.808;2024-01-15T05:26:01;99894.81;;;2.38;100.00
68871;BME280;55906;52.278;6.808;2024-01-15T05:28:28;99886.03;;;2.35;100.00
68871;BME280;55906;52.278;6.808;2024-01-15T05:30:55;99891.16;;;2.33;100.00
68871;BME280;55906;52.278;6.808;2024-01-15T05:33:23;99897.28;;;2.35;100.00
68871;BME280;55906;52.278;6.808;2024-01-15T05:35:49;99898.09;;;2.34;100.00
68871;BME280;55906;52.278;6.808;2024-01-15T05:38:16;99905.91;;;2.34;100.00
68871;BME280;55906;52.278;6.808;2024-01-15T05:40:43;99908.56;;;2.36;100.00
68871;BME280;55906;52.278;6.808;2024-01-15T05:43:09;99895.78;;;2.40;100.00
68871;BME280;55906;52.278;6.808;2024-01-15T05:45:38;99911.47;;;2.43;100.00
68871;BME280;55906;52.278;6.808;2024-01-15T05:48:05;99920.78;;;2.38;100.00
68871;BME280;55906;52.278;6.808;2024-01-15T05:50:33;99914.06;;;2.43;100.00
68871;BME280;55906;52.278;6.808;2024-01-15T05:53:00;99915.59;;;2.38;100.00
68871;BME280;55906;52.278;6.808;2024-01-15T05:55:28;99908.44;;;2.33;100.00
68871;BME280;55906;52.278;6.808;2024-01-15T05:57:54;99904.94;;;2.32;100.00
68871;BME280;55906;52.278;6.808;2024-01-15T06:00:21;99902.34;;;2.32;100.00
68871;BME280;55906;52.278;6.808;2024-01-15T06:02:47;99901.53;;;2.33;100.00
68871;BME280;55906;52.278;6.808;2024-01-15T06:05:14;99902.59;;;2.38;100.00
68871;BME280;55906;52.278;6.808;2024-01-15T06:07:42;99903.31;;;2.34;100.00
68871;BME280;55906;52.278;6.808;2024-01-15T06:10:09;99906.53;;;2.29;100.00
68871;BME280;55906;52.278;6.808;2024-01-15T06:12:35;99908.03;;;2.23;100.00
68871;BME280;55906;52.278;6.808;2024-01-15T06:15:03;99906.53;;;2.29;100.00
68871;BME280;55906;52.278;6.808;2024-01-15T06:17:29;99902.22;;;2.29;100.00
68871;BME280;55906;52.278;6.808;2024-01-15T06:19:56;99889.81;;;2.22;100.00
68871;BME280;55906;52.278;6.808;2024-01-15T06:22:23;99890.81;;;2.25;100.00
68871;BME280;55906;52.278;6.808;2024-01-15T06:24:51;99894.50;;;2.31;100.00
68871;BME280;55906;52.278;6.808;2024-01-15T06:27:18;99905.63;;;2.28;100.00
68871;BME280;55906;52.278;6.808;2024-01-15T06:29:45;99905.69;;;2.30;100.00
68871;BME280;55906;52.278;6.808;2024-01-15T06:32:12;99905.56;;;2.27;100.00
68871;BME280;55906;52.278;6.808;2024-01-15T06:34:39;99906.47;;;2.27;100.00
68871;BME280;55906;52.278;6.808;2024-01-15T06:37:05;99918.22;;;2.19;100.00
68871;BME280;55906;52.278;6.808;2024-01-15T06:39:32;99910.50;;;2.20;100.00
68871;BME280;55906;52.278;6.808;2024-01-15T06:42:00;99913.22;;;2.23;100.00
68871;BME280;55906;52.278;6.808;2024-01-15T06:44:27;99912.94;;;2.17;100.00
68871;BME280;55906;52.278;6.808;2024-01-15T06:46:53;99917.25;;;2.17;100.00
68871;BME280;55906;52.278;6.808;2024-01-15T06:49:22;99915.47;;;2.16;100.00
68871;BME280;55906;52.278;6.808;2024-01-15T06:51:49;99900.75;;;2.15;100.00
68871;BME280;55906;52.278;6.808;2024-01-15T06:54:16;99902.38;;;2.13;100.00
68871;BME280;55906;52.278;6.808;2024-01-15T06:56:42;99901.44;;;2.11;100.00
68871;BME280;55906;52.278;6.808;2024-01-15T06:59:10;99905.09;;;2.16;100.00
68871;BME280;55906;52.278;6.808;2024-01-15T07:01:37;99898.75;;;2.09;100.00
68871;BME280;55906;52.278;6.808;2024-01-15T07:04:03;99898.84;;;2.11;100.00
68871;BME280;55906;52.278;6.808;2024-01-15T07:06:30;99896.31;;;2.12;100.00
68871;BME280;55906;52.278;6.808;2024-01-15T07:08:57;99892.69;;;2.09;100.00
68871;BME280;55906;52.278;6.808;2024-01-15T07:11:24;99898.75;;;2.09;100.00
68871;BME280;55906;52.278;6.808;2024-01-15T07:13:50;99892.75;;;2.10;100.00
68871;BME280;55906;52.278;6.808;2024-01-15T07:16:18;99892.69;;;2.09;100.00
68871;BME280;55906;52.278;6.808;2024-01-15T07:18:45;99893.56;;;2.09;100.00
68871;BME280;55906;52.278;6.808;2024-01-15T07:21:11;99891.19;;;2.14;100.00
68871;BME280;55906;52.278;6.808;2024-01-15T07:23:38;99900.75;;;2.15;100.00
68871;BME280;55906;52.278;6.808;2024-01-15T07:26:05;99893.03;;;2.16;100.00
68871;BME280;55906;52.278;6.808;2024-01-15T07:28:32;99889.47;;;2.14;100.00
68871;BME280;55906;52.278;6.808;2024-01-15T07:30:58;99886.69;;;2.10;100.00
68871;BME280;55906;52.278;6.808;2024-01-15T07:33:27;99893.84;;;2.15;100.00
68871;BME280;55906;52.278;6.808;2024-01-15T07:35:54;99886.88;;;2.14;100.00
68871;BME280;55906;52.278;6.808;2024-01-15T07:38:21;99888.03;;;2.21;100.00
68871;BME280;55906;52.278;6.808;2024-01-15T07:40:48;99886.13;;;2.17;100.00
68871;BME280;55906;52.278;6.808;2024-01-15T07:43:15;99898.97;;;2.14;100.00
68871;BME280;55906;52.278;6.808;2024-01-15T07:45:41;99892.13;;;2.16;100.00
68871;BME280;55906;52.278;6.808;2024-01-15T07:48:08;99894.72;;;2.16;100.00
68871;BME280;55906;52.278;6.808;2024-01-15T07:50:36;99901.00;;;2.21;100.00
68871;BME280;55906;52.278;6.808;2024-01-15T07:53:03;99893.22;;;2.21;100.00
68871;BME280;55906;52.278;6.808;2024-01-15T07:55:30;99895.69;;;2.18;100.00
68871;BME280;55906;52.278;6.808;2024-01-15T07:57:57;99891.94;;;2.11;100.00
68871;BME280;55906;52.278;6.808;2024-01-15T08:00:24;99889.34;;;2.11;100.00
68871;BME280;55906;52.278;6.808;2024-01-15T08:02:51;99896.09;;;2.08;100.00
68871;BME280;55906;52.278;6.808;2024-01-15T08:05:18;99895.03;;;2.03;100.00
68871;BME280;55906;52.278;6.808;2024-01-15T08:07:47;99894.28;;;2.05;100.00
68871;BME280;55906;52.278;6.808;2024-01-15T08:10:14;99889.00;;;2.04;100.00
68871;BME280;55906;52.278;6.808;2024-01-15T08:12:41;99889.78;;;2.01;100.00
68871;BME280;55906;52.278;6.808;2024-01-15T08:15:07;99889.16;;;2.07;100.00
68871;BME280;55906;52.278;6.808;2024-01-15T08:17:34;99898.31;;;1.99;100.00
68871;BME280;55906;52.278;6.808;2024-01-15T08:20:01;99888.63;;;1.95;100.00
68871;BME280;55906;52.278;6.808;2024-01-15T08:22:30;99893.88;;;1.96;100.00
68871;BME280;55906;52.278;6.808;2024-01-15T08:24:58;99903.81;;;2.06;100.00
68871;BME280;55906;52.278;6.808;2024-01-15T08:27:25;99902.88;;;2.04;100.00
68871;BME280;55906;52.278;6.808;2024-01-15T08:29:51;99886.34;;;2.02;100.00
68871;BME280;55906;52.278;6.808;2024-01-15T08:32:18;99906.22;;;2.02;100.00
68871;BME280;55906;52.278;6.808;2024-01-15T08:34:45;99899.53;;;2.07;100.00
68871;BME280;55906;52.278;6.808;2024-01-15T08:37:12;99891.19;;;2.14;100.00
68871;BME280;55906;52.278;6.808;2024-01-15T08:39:39;99889.28;;;2.10;100.00
68871;BME280;55906;52.278;6.808;2024-01-15T08:42:07;99890.19;;;2.31;100.00
68871;BME280;55906;52.278;6.808;2024-01-15T08:44:34;99891.56;;;2.23;100.00
68871;BME280;55906;52.278;6.808;2024-01-15T08:47:01;99894.94;;;2.20;100.00
68871;BME280;55906;52.278;6.808;2024-01-15T08:49:28;99898.66;;;2.27;100.00
68871;BME280;55906;52.278;6.808;2024-01-15T08:51:54;99900.44;;;2.28;100.00
68871;BME280;55906;52.278;6.808;2024-01-15T08:54:21;99897.03;;;2.29;100.00
68871;BME280;55906;52.278;6.808;2024-01-15T08:56:48;99903.38;;;2.36;100.00
68871;BME280;55906;52.278;6.808;2024-01-15T08:59:16;99889.88;;;2.44;100.00
68871;BME280;55906;52.278;6.808;2024-01-15T09:01:49;99899.84;;;2.54;100.00
68871;BME280;55906;52.278;6.808;2024-01-15T09:04:16;99884.00;;;2.48;99.96
68871;BME280;55906;52.278;6.808;2024-01-15T09:06:44;99877.72;;;2.63;100.00
68871;BME280;55906;52.278;6.808;2024-01-15T09:09:12;99886.81;;;2.74;99.27
68871;BME280;55906;52.278;6.808;2024-01-15T09:11:39;99887.19;;;2.83;99.16
68871;BME280;55906;52.278;6.808;2024-01-15T09:14:06;99888.94;;;3.05;98.66
68871;BME280;55906;52.278;6.808;2024-01-15T09:16:35;99896.31;;;3.16;97.63
68871;BME280;55906;52.278;6.808;2024-01-15T09:19:02;99903.41;;;3.20;97.23
68871;BME280;55906;52.278;6.808;2024-01-15T09:21:29;99892.25;;;3.23;97.04
68871;BME280;55906;52.278;6.808;2024-01-15T09:23:55;99902.75;;;3.26;96.94
68871;BME280;55906;52.278;6.808;2024-01-15T09:26:22;99909.22;;;3.36;96.71
68871;BME280;55906;52.278;6.808;2024-01-15T09:28:49;99913.44;;;3.78;95.45
68871;BME280;55906;52.278;6.808;2024-01-15T09:31:16;99900.97;;;3.92;95.02
68871;BME280;55906;52.278;6.808;2024-01-15T09:33:46;99903.78;;;3.76;94.22
68871;BME280;55906;52.278;6.808;2024-01-15T09:36:13;99903.22;;;3.61;94.46
68871;BME280;55906;52.278;6.808;2024-01-15T09:38:40;99901.16;;;3.52;94.19
68871;BME280;55906;52.278;6.808;2024-01-15T09:41:07;99901.34;;;3.34;93.72
68871;BME280;55906;52.278;6.808;2024-01-15T09:43:34;99903.06;;;3.34;93.87
68871;BME280;55906;52.278;6.808;2024-01-15T09:46:01;99915.81;;;3.05;94.63
68871;BME280;55906;52.278;6.808;2024-01-15T09:48:27;99902.44;;;2.96;95.61
68871;BME280;55906;52.278;6.808;2024-01-15T09:50:57;99901.13;;;2.85;96.37
68871;BME280;55906;52.278;6.808;2024-01-15T09:53:25;99911.38;;;2.82;96.37
68871;BME280;55906;52.278;6.808;2024-01-15T09:55:52;99906.75;;;2.96;96.40
68871;BME280;55906;52.278;6.808;2024-01-15T09:58:19;99908.31;;;3.35;94.82
68871;BME280;55906;52.278;6.808;2024-01-15T10:00:47;99891.47;;;3.48;94.41
68871;BME280;55906;52.278;6.808;2024-01-15T10:03:15;99893.22;;;3.94;92.60
68871;BME280;55906;52.278;6.808;2024-01-15T10:05:43;99894.63;;;4.59;90.46
68871;BME280;55906;52.278;6.808;2024-01-15T10:08:11;99897.75;;;5.28;88.08
68871;BME280;55906;52.278;6.808;2024-01-15T10:10:38;99906.59;;;5.61;86.54
68871;BME280;55906;52.278;6.808;2024-01-15T10:13:04;99904.66;;;5.26;86.21
68871;BME280;55906;52.278;6.808;2024-01-15T10:15:34;99908.06;;;4.71;87.22
68871;BME280;55906;52.278;6.808;2024-01-15T10:18:02;99895.25;;;4.52;87.90
68871;BME280;55906;52.278;6.808;2024-01-15T10:20:29;99882.75;;;4.41;87.64
68871;BME280;55906;52.278;6.808;2024-01-15T10:22:58;99886.91;;;4.11;89.18
68871;BME280;55906;52.278;6.808;2024-01-15T10:25:26;99889.44;;;4.09;89.22
68871;BME280;55906;52.278;6.808;2024-01-15T10:28:02;99882.41;;;4.07;89.43
68871;BME280;55906;52.278;6.808;2024-01-15T10:30:28;99877.53;;;4.16;89.64
68871;BME280;55906;52.278;6.808;2024-01-15T10:32:59;99885.59;;;4.24;89.36
68871;BME280;55906;52.278;6.808;2024-01-15T10:35:30;99878.94;;;4.06;88.81
68871;BME280;55906;52.278;6.808;2024-01-15T10:37:57;99874.69;;;4.34;88.60
68871;BME280;55906;52.278;6.808;2024-01-15T10:40:23;99869.50;;;4.61;88.47
68871;BME280;55906;52.278;6.808;2024-01-15T10:42:52;99870.41;;;4.61;86.96
68871;BME280;55906;52.278;6.808;2024-01-15T10:45:18;99879.41;;;4.45;86.67
68871;BME280;55906;52.278;6.808;2024-01-15T10:47:45;99874.63;;;4.85;87.15
68871;BME280;55906;52.278;6.808;2024-01-15T10:50:12;99874.06;;;4.93;86.08
68871;BME280;55906;52.278;6.808;2024-01-15T10:52:40;99878.78;;;5.32;84.48
68871;BME280;55906;52.278;6.808;2024-01-15T10:55:08;99872.72;;;5.06;85.23
68871;BME280;55906;52.278;6.808;2024-01-15T10:57:35;99883.28;;;4.83;85.89
68871;BME280;55906;52.278;6.808;2024-01-15T11:00:06;99880.03;;;4.64;85.64
68871;BME280;55906;52.278;6.808;2024-01-15T11:02:35;99887.75;;;4.35;86.45
68871;BME280;55906;52.278;6.808;2024-01-15T11:05:02;99875.34;;;4.03;88.15
68871;BME280;55906;52.278;6.808;2024-01-15T11:07:30;99876.81;;;3.96;88.63
68871;BME280;55906;52.278;6.808;2024-01-15T11:09:57;99875.69;;;3.90;88.66
68871;BME280;55906;52.278;6.808;2024-01-15T11:12:24;99872.81;;;4.30;89.06
68871;BME280;55906;52.278;6.808;2024-01-15T11:14:51;99881.28;;;4.75;86.47
68871;BME280;55906;52.278;6.808;2024-01-15T11:17:21;99862.09;;;5.00;85.51
68871;BME280;55906;52.278;6.808;2024-01-15T11:19:48;99857.78;;;5.27;83.65
68871;BME280;55906;52.278;6.808;2024-01-15T11:22:48;99860.63;;;5.65;82.70
68871;BME280;55906;52.278;6.808;2024-01-15T11:25:15;99866.00;;;5.41;82.71
68871;BME280;55906;52.278;6.808;2024-01-15T11:27:45;99868.97;;;5.53;82.50
68871;BME280;55906;52.278;6.808;2024-01-15T11:30:16;99866.56;;;5.31;83.00
68871;BME280;55906;52.278;6.808;2024-01-15T11:32:46;99873.47;;;5.02;83.63
68871;BME280;55906;52.278;6.808;2024-01-15T11:35:13;99863.44;;;4.87;84.40
68871;BME280;55906;52.278;6.808;2024-01-15T11:37:58;99861.84;;;4.65;85.12
68871;BME280;55906;52.278;6.808;2024-01-15T11:40:37;99876.44;;;4.35;86.96
68871;BME280;55906;52.278;6.808;2024-01-15T11:43:05;99863.28;;;4.30;87.00
68871;BME280;55906;52.278;6.808;2024-01-15T11:45:32;99879.50;;;4.23;87.54
68871;BME280;55906;52.278;6.808;2024-01-15T11:48:12;99875.09;;;4.21;87.55
68871;BME280;55906;52.278;6.808;2024-01-15T11:50:42;99886.16;;;4.15;88.99
68871;BME280;55906;52.278;6.808;2024-01-15T11:53:19;99875.53;;;4.09;90.08
68871;BME280;55906;52.278;6.808;2024-01-15T11:55:48;99888.50;;;4.07;90.49
68871;BME280;55906;52.278;6.808;2024-01-15T11:58:17;99886.25;;;3.93;90.84
68871;BME280;55906;52.278;6.808;2024-01-15T12:00:46;99879.81;;;4.07;90.98
68871;BME280;55906;52.278;6.808;2024-01-15T12:03:16;99876.16;;;4.02;91.77
68871;BME280;55906;52.278;6.808;2024-01-15T12:05:43;99889.16;;;4.02;91.83
68871;BME280;55906;52.278;6.808;2024-01-15T12:08:09;99882.19;;;4.01;92.44
68871;BME280;55906;52.278;6.808;2024-01-15T12:10:37;99875.84;;;3.93;92.08
68871;BME280;55906;52.278;6.808;2024-01-15T12:13:10;99878.88;;;4.05;92.84
68871;BME280;55906;52.278;6.808;2024-01-15T12:15:37;99872.28;;;3.91;93.00
68871;BME280;55906;52.278;6.808;2024-01-15T12:18:07;99873.63;;;3.81;93.48
68871;BME280;55906;52.278;6.808;2024-01-15T12:20:36;99872.03;;;3.84;94.52
68871;BME280;55906;52.278;6.808;2024-01-15T12:23:03;99888.13;;;3.97;93.66
68871;BME280;55906;52.278;6.808;2024-01-15T12:25:30;99880.91;;;4.13;93.50
68871;BME280;55906;52.278;6.808;2024-01-15T12:27:57;99888.88;;;4.18;93.02
68871;BME280;55906;52.278;6.808;2024-01-15T12:30:25;99889.94;;;4.23;92.14
68871;BME280;55906;52.278;6.808;2024-01-15T12:32:52;99896.78;;;4.21;92.47
68871;BME280;55906;52.278;6.808;2024-01-15T12:35:19;99895.53;;;4.10;92.30
68871;BME280;55906;52.278;6.808;2024-01-15T12:37:47;99885.44;;;4.19;92.06
68871;BME280;55906;52.278;6.808;2024-01-15T12:40:19;99901.69;;;4.37;91.93
68871;BME280;55906;52.278;6.808;2024-01-15T12:42:46;99899.22;;;4.40;90.57
68871;BME280;55906;52.278;6.808;2024-01-15T12:45:13;99910.50;;;4.66;90.21
68871;BME280;55906;52.278;6.808;2024-01-15T12:47:41;99906.34;;;4.98;88.90
68871;BME280;55906;52.278;6.808;2024-01-15T12:50:08;99896.31;;;5.10;88.16
68871;BME280;55906;52.278;6.808;2024-01-15T12:52:35;99905.84;;;5.10;86.88
68871;BME280;55906;52.278;6.808;2024-01-15T12:55:06;99913.19;;;4.95;87.33
68871;BME280;55906;52.278;6.808;2024-01-15T12:57:34;99914.47;;;5.34;86.05
68871;BME280;55906;52.278;6.808;2024-01-15T13:00:01;99916.19;;;5.62;85.10
68871;BME280;55906;52.278;6.808;2024-01-15T13:02:31;99914.09;;;5.79;84.80
68871;BME280;55906;52.278;6.808;2024-01-15T13:04:58;99923.72;;;5.52;84.09